Time;durP1;ratioP1;P1;durP2;ratioP2;P2;SDS_P1;SDS_P2;PMS_P1;PMS_P2;Temp;Humidity;BMP_temperature;BMP_pressure;BME280_temperature;BME280_humidity;BME280_pressure;Samples;Min_cycle;Max_cycle;Signal;HPM_P1;HPM_P2
2023/07/14 00:00:18;;;;;;;14.70;8.82;;;;;;;-148.88;100.00;-17125.47;5033664;28;20435;-71
2023/07/14 00:02:46;;;;;;;14.90;8.95;;;;;;;-148.88;100.00;-17125.47;5033582;28;20033;-70
2023/07/14 00:05:17;;;;;;;12.25;8.90;;;;;;;-148.88;100.00;-17125.47;5033595;28;20500;-70
2023/07/14 00:07:43;;;;;;;11.88;9.23;;;;;;;-148.88;100.00;-17125.47;5033534;28;20392;-70
2023/07/14 00:10:16;;;;;;;14.23;9.45;;;;;;;-148.88;100.00;-17125.47;5033555;28;20108;-70
2023/07/14 00:12:41;;;;;;;14.05;9.65;;;;;;;-148.88;100.00;-17125.47;5033410;28;20488;-70
2023/07/14 00:15:07;;;;;;;14.25;8.80;;;;;;;-148.88;100.00;-17125.47;5033436;28;20024;-70
2023/07/14 00:17:32;;;;;;;12.73;9.40;;;;;;;-148.88;100.00;-17125.47;5033420;28;20025;-70
2023/07/14 00:19:59;;;;;;;12.43;9.20;;;;;;;-148.88;100.00;-17125.47;5033353;28;20392;-70
2023/07/14 00:22:30;;;;;;;13.27;9.57;;;;;;;-148.88;100.00;-17125.47;5033289;28;20032;-70
2023/07/14 00:24:56;;;;;;;13.07;9.82;;;;;;;-148.88;100.00;-17125.47;5033573;28;20106;-70
2023/07/14 00:27:24;;;;;;;17.20;9.30;;;;;;;-148.88;100.00;-17125.47;5033370;28;20173;-71
2023/07/14 00:29:50;;;;;;;15.48;10.00;;;;;;;-148.88;100.00;-17125.47;5033620;28;20021;-71
2023/07/14 00:32:22;;;;;;;13.25;9.50;;;;;;;-148.88;100.00;-17125.47;5032776;28;20028;-71
2023/07/14 00:34:48;;;;;;;13.57;10.32;;;;;;;-148.88;100.00;-17125.47;5015549;28;20036;-72
2023/07/14 00:37:13;;;;;;;12.93;10.65;;;;;;;-148.88;100.00;-17125.47;5033119;28;20017;-71
2023/07/14 00:39:40;;;;;;;14.15;10.43;;;;;;;-148.88;100.00;-17125.47;5033225;28;20116;-70
2023/07/14 00:42:11;;;;;;;13.43;10.35;;;;;;;-148.88;100.00;-17125.47;5032985;28;20048;-70
2023/07/14 00:44:36;;;;;;;13.00;10.10;;;;;;;-148.88;100.00;-17125.47;5033526;28;20025;-71
2023/07/14 00:47:05;;;;;;;13.00;10.32;;;;;;;-148.88;100.00;-17125.47;5032893;28;20021;-70
2023/07/14 00:49:39;;;;;;;13.13;9.88;;;;;;;-148.88;100.00;-17125.47;5033299;28;20021;-70
2023/07/14 00:52:16;;;;;;;13.82;9.73;;;;;;;-148.88;100.00;-17125.47;5032884;28;20025;-70
2023/07/14 00:54:49;;;;;;;13.10;9.60;;;;;;;-148.88;100.00;-17125.47;5032914;28;20038;-70
2023/07/14 00:57:17;;;;;;;12.38;10.13;;;;;;;-148.88;100.00;-17125.47;5032881;28;20017;-70
2023/07/14 00:59:42;;;;;;;12.93;10.32;;;;;;;-148.88;100.00;-17125.47;5032823;28;20040;-71
2023/07/14 01:02:10;;;;;;;13.30;10.10;;;;;;;-148.88;100.00;-17125.47;5032730;28;20021;-71
2023/07/14 01:04:55;;;;;;;12.77;10.13;;;;;;;-148.88;100.00;-17125.47;5032768;28;20033;-71
2023/07/14 01:07:27;;;;;;;14.57;11.23;;;;;;;-148.88;100.00;-17125.47;5032908;28;20026;-70
2023/07/14 01:09:56;;;;;;;14.05;10.98;;;;;;;-148.88;100.00;-17125.47;5032664;28;20480;-70
2023/07/14 01:12:24;;;;;;;11.85;9.98;;;;;;;-148.88;100.00;-17125.47;5032753;28;20075;-71
2023/07/14 01:14:53;;;;;;;12.45;10.95;;;;;;;-148.88;100.00;-17125.47;5032797;28;20021;-71
2023/07/14 01:17:21;;;;;;;15.30;11.07;;;;;;;-148.88;100.00;-17125.47;5032885;28;20013;-70
2023/07/14 01:19:51;;;;;;;12.07;10.43;;;;;;;-148.88;100.00;-17125.47;5032586;28;20030;-70
2023/07/14 01:22:35;;;;;;;16.05;10.43;;;;;;;-148.88;100.00;-17125.47;5014873;28;20087;-70
2023/07/14 01:25:19;;;;;;;11.93;10.50;;;;;;;-148.88;100.00;-17125.47;5032551;28;20026;-70
2023/07/14 01:27:46;;;;;;;14.48;11.43;;;;;;;-148.88;100.00;-17125.47;5032482;28;20029;-70
2023/07/14 01:30:12;;;;;;;17.02;11.90;;;;;;;-148.88;100.00;-17125.47;5032445;28;20025;-70
2023/07/14 01:32:43;;;;;;;13.18;10.75;;;;;;;-148.88;100.00;-17125.47;5032368;28;20036;-70
2023/07/14 01:35:09;;;;;;;16.13;11.48;;;;;;;-148.88;100.00;-17125.47;5032497;28;20504;-70
2023/07/14 01:40:00;;;;;;;16.20;11.63;;;;;;;-148.88;100.00;-17125.47;5036569;22;20092;-84
2023/07/14 01:42:26;;;;;;;15.60;11.63;;;;;;;-148.88;100.00;-17125.47;5015811;28;20392;-84
2023/07/14 01:44:54;;;;;;;14.73;11.40;;;;;;;-148.88;100.00;-17125.47;5036008;28;20033;-85
2023/07/14 01:47:23;;;;;;;12.68;10.95;;;;;;;-148.88;100.00;-17125.47;5019171;28;20025;-86
2023/07/14 01:49:51;;;;;;;14.30;10.93;;;;;;;-148.88;100.00;-17125.47;5018931;28;20029;-84
2023/07/14 01:55:04;;;;;;;13.38;11.77;;;;;;;-148.88;100.00;-17125.47;5022746;28;20077;-80
2023/07/14 01:57:33;;;;;;;17.25;12.10;;;;;;;-148.88;100.00;-17125.47;5025003;28;20029;-80
2023/07/14 02:00:09;;;;;;;14.45;11.43;;;;;;;-148.88;100.00;-17125.47;5007283;28;20030;-81
2023/07/14 02:02:37;;;;;;;16.02;11.35;;;;;;;-148.88;100.00;-17125.47;5008073;28;20037;-80
2023/07/14 02:05:24;;;;;;;16.15;12.98;;;;;;;-148.88;100.00;-17125.47;5008074;28;20021;-81
2023/07/14 02:07:50;;;;;;;16.45;12.43;;;;;;;-148.88;100.00;-17125.47;5025829;28;20049;-80
2023/07/14 02:10:18;;;;;;;16.75;12.50;;;;;;;-148.88;100.00;-17125.47;5009005;28;20017;-81
2023/07/14 02:12:46;;;;;;;19.48;14.02;;;;;;;-148.88;100.00;-17125.47;5009379;28;20036;-80
2023/07/14 02:15:20;;;;;;;18.77;14.30;;;;;;;-148.88;100.00;-17125.47;5027055;28;20029;-80
2023/07/14 02:17:47;;;;;;;22.98;15.00;;;;;;;-148.88;100.00;-17125.47;5026930;28;20021;-81
2023/07/14 02:20:32;;;;;;;18.88;14.35;;;;;;;-148.88;100.00;-17125.47;5008306;28;20163;-81
2023/07/14 02:23:01;;;;;;;20.45;14.00;;;;;;;-148.88;100.00;-17125.47;5026151;28;20037;-80
2023/07/14 02:25:31;;;;;;;18.38;13.35;;;;;;;-148.88;100.00;-17125.47;5002872;28;20488;-79
2023/07/14 02:27:56;;;;;;;19.85;13.65;;;;;;;-148.88;100.00;-17125.47;5003409;28;20030;-80
2023/07/14 02:30:23;;;;;;;20.10;13.70;;;;;;;-148.88;100.00;-17125.47;5004704;28;20034;-80
2023/07/14 02:32:56;;;;;;;16.25;12.77;;;;;;;-148.88;100.00;-17125.47;5023195;28;20029;-81
2023/07/14 02:35:33;;;;;;;20.65;15.00;;;;;;;-148.88;100.00;-17125.47;5023943;28;20428;-80
2023/07/14 02:38:10;;;;;;;18.30;14.07;;;;;;;-148.88;100.00;-17125.47;5006831;28;20058;-80
2023/07/14 02:40:44;;;;;;;18.35;13.68;;;;;;;-148.88;100.00;-17125.47;5006897;28;20021;-81
2023/07/14 02:43:13;;;;;;;19.17;13.32;;;;;;;-148.88;100.00;-17125.47;5026245;28;20025;-81
2023/07/14 02:45:49;;;;;;;21.08;13.75;;;;;;;-148.88;100.00;-17125.47;5025365;28;20050;-81
2023/07/14 02:48:18;;;;;;;17.50;12.98;;;;;;;-148.88;100.00;-17125.47;5025611;28;20037;-81
2023/07/14 02:50:44;;;;;;;20.98;14.10;;;;;;;-148.88;100.00;-17125.47;5026362;28;20026;-81
2023/07/14 02:53:10;;;;;;;18.63;14.20;;;;;;;-148.88;100.00;-17125.47;5025333;28;20033;-81
2023/07/14 02:55:36;;;;;;;19.83;13.85;;;;;;;-148.88;100.00;-17125.47;5025174;28;20049;-81
2023/07/14 02:58:03;;;;;;;16.17;12.40;;;;;;;-148.88;100.00;-17125.47;5025399;28;20037;-81
2023/07/14 03:00:28;;;;;;;17.90;12.43;;;;;;;-148.88;100.00;-17125.47;5007955;28;20113;-80
2023/07/14 03:02:54;;;;;;;17.27;12.45;;;;;;;-148.88;100.00;-17125.47;5021380;28;20053;-80
2023/07/14 03:05:19;;;;;;;17.27;12.32;;;;;;;-148.88;100.00;-17125.47;5005909;28;20112;-80
2023/07/14 03:07:44;;;;;;;18.00;11.57;;;;;;;-148.88;100.00;-17125.47;5006941;28;20021;-81
2023/07/14 03:10:10;;;;;;;18.60;12.07;;;;;;;-148.88;100.00;-17125.47;5025325;28;20036;-80
2023/07/14 03:12:35;;;;;;;16.92;11.73;;;;;;;-148.88;100.00;-17125.47;5024822;28;20051;-80
2023/07/14 03:15:01;;;;;;;16.35;11.50;;;;;;;-148.88;100.00;-17125.47;5025316;28;20028;-81
2023/07/14 03:17:27;;;;;;;21.55;11.52;;;;;;;-148.88;100.00;-17125.47;5024577;28;20024;-81
2023/07/14 03:19:52;;;;;;;16.42;11.15;;;;;;;-148.88;100.00;-17125.47;5025034;28;20025;-81
2023/07/14 03:22:17;;;;;;;15.15;10.68;;;;;;;-148.88;100.00;-17125.47;5024981;28;20018;-82
2023/07/14 03:24:43;;;;;;;16.60;10.98;;;;;;;-148.88;100.00;-17125.47;5007453;28;20029;-81
2023/07/14 03:27:08;;;;;;;14.75;10.85;;;;;;;-148.88;100.00;-17125.47;5024800;28;20061;-80
2023/07/14 03:29:33;;;;;;;16.27;11.43;;;;;;;-148.88;100.00;-17125.47;5025701;28;20029;-81
2023/07/14 03:31:59;;;;;;;15.98;10.90;;;;;;;-148.88;100.00;-17125.47;5026173;28;20365;-81
2023/07/14 03:34:24;;;;;;;17.40;10.70;;;;;;;-148.88;100.00;-17125.47;5024917;28;20037;-81
2023/07/14 03:36:49;;;;;;;12.60;10.57;;;;;;;-148.88;100.00;-17125.47;5008092;28;20037;-81
2023/07/14 03:39:18;;;;;;;17.02;11.10;;;;;;;-148.88;100.00;-17125.47;5023852;28;20033;-81
2023/07/14 03:41:43;;;;;;;15.18;11.43;;;;;;;-148.88;100.00;-17125.47;5000413;28;20140;-79
2023/07/14 03:44:08;;;;;;;13.95;10.75;;;;;;;-148.88;100.00;-17125.47;5002259;28;20033;-80
2023/07/14 03:46:34;;;;;;;17.98;11.18;;;;;;;-148.88;100.00;-17125.47;5003565;28;20435;-80
2023/07/14 03:48:59;;;;;;;17.70;10.55;;;;;;;-148.88;100.00;-17125.47;5004531;28;20041;-80
2023/07/14 03:51:24;;;;;;;14.35;10.77;;;;;;;-148.88;100.00;-17125.47;5022858;28;20153;-80
2023/07/14 03:53:50;;;;;;;14.27;10.45;;;;;;;-148.88;100.00;-17125.47;5023444;28;20068;-80
2023/07/14 03:56:15;;;;;;;20.65;10.93;;;;;;;-148.88;100.00;-17125.47;5006716;28;20085;-81
2023/07/14 03:58:41;;;;;;;17.90;10.77;;;;;;;-148.88;100.00;-17125.47;5023769;28;20033;-81
2023/07/14 04:01:07;;;;;;;13.88;10.70;;;;;;;-148.88;100.00;-17125.47;5007276;28;20048;-80
2023/07/14 04:03:32;;;;;;;15.57;11.18;;;;;;;-148.88;100.00;-17125.47;5024446;28;20089;-81
2023/07/14 04:05:57;;;;;;;21.48;11.27;;;;;;;-148.88;100.00;-17125.47;5024566;28;20026;-80
2023/07/14 04:08:23;;;;;;;18.15;11.32;;;;;;;-148.88;100.00;-17125.47;5025383;28;20037;-81
2023/07/14 04:10:48;;;;;;;18.52;11.77;;;;;;;-148.88;100.00;-17125.47;5008104;28;20026;-80
2023/07/14 04:13:14;;;;;;;26.23;13.02;;;;;;;-148.88;100.00;-17125.47;5007884;28;20045;-80
2023/07/14 04:15:39;;;;;;;19.15;12.38;;;;;;;-148.88;100.00;-17125.47;5025092;28;20396;-80
2023/07/14 04:18:04;;;;;;;21.80;11.80;;;;;;;-148.88;100.00;-17125.47;5001092;28;20068;-80
2023/07/14 04:20:30;;;;;;;29.63;12.85;;;;;;;-148.88;100.00;-17125.47;5000661;28;20400;-81
2023/07/14 04:22:57;;;;;;;29.85;12.05;;;;;;;-148.88;100.00;-17125.47;5002719;28;20021;-79
2023/07/14 04:25:23;;;;;;;24.63;12.95;;;;;;;-148.88;100.00;-17125.47;5005229;28;20052;-81
2023/07/14 04:27:49;;;;;;;23.42;11.73;;;;;;;-148.88;100.00;-17125.47;5025673;28;20439;-81
2023/07/14 04:30:14;;;;;;;19.73;12.25;;;;;;;-148.88;100.00;-17125.47;5025887;28;20527;-81
2023/07/14 04:32:42;;;;;;;20.58;12.10;;;;;;;-148.88;100.00;-17125.47;5026110;28;20030;-80
2023/07/14 04:35:08;;;;;;;24.88;12.52;;;;;;;-148.88;100.00;-17125.47;5009704;28;20038;-81
2023/07/14 04:37:33;;;;;;;17.88;11.23;;;;;;;-148.88;100.00;-17125.47;5026200;28;20535;-80
2023/07/14 04:39:59;;;;;;;19.88;11.77;;;;;;;-148.88;100.00;-17125.47;5014624;28;20061;-82
2023/07/14 04:42:24;;;;;;;18.25;11.60;;;;;;;-148.88;100.00;-17125.47;5014771;28;20558;-80
2023/07/14 04:44:50;;;;;;;14.68;10.90;;;;;;;-148.88;100.00;-17125.47;5011403;28;20025;-81
2023/07/14 04:47:15;;;;;;;15.43;11.23;;;;;;;-148.88;100.00;-17125.47;5026160;28;20025;-81
2023/07/14 04:49:41;;;;;;;21.10;11.90;;;;;;;-148.88;100.00;-17125.47;5024050;28;20081;-82
2023/07/14 04:52:06;;;;;;;17.30;11.48;;;;;;;-148.88;100.00;-17125.47;5025719;28;20080;-82
2023/07/14 04:54:32;;;;;;;19.55;12.65;;;;;;;-148.88;100.00;-17125.47;5007205;28;20026;-82
2023/07/14 04:56:57;;;;;;;20.02;11.48;;;;;;;-148.88;100.00;-17125.47;5002282;28;20156;-80
2023/07/14 04:59:23;;;;;;;16.92;11.52;;;;;;;-148.88;100.00;-17125.47;4999457;28;20022;-79
2023/07/14 05:01:48;;;;;;;14.70;10.93;;;;;;;-148.88;100.00;-17125.47;5020773;28;20029;-81
2023/07/14 05:04:13;;;;;;;18.67;11.35;;;;;;;-148.88;100.00;-17125.47;5022707;28;20029;-82
2023/07/14 05:06:39;;;;;;;23.30;11.07;;;;;;;-148.88;100.00;-17125.47;5004529;28;20133;-81
2023/07/14 05:09:04;;;;;;;17.52;10.85;;;;;;;-148.88;100.00;-17125.47;5021851;28;20080;-82
2023/07/14 05:11:30;;;;;;;16.02;10.60;;;;;;;-148.88;100.00;-17125.47;5002586;28;20030;-81
2023/07/14 05:13:55;;;;;;;16.42;10.73;;;;;;;-148.88;100.00;-17125.47;5019712;28;20140;-81
2023/07/14 05:16:21;;;;;;;15.82;10.32;;;;;;;-148.88;100.00;-17125.47;5002376;28;20060;-81
2023/07/14 05:18:47;;;;;;;15.48;11.27;;;;;;;-148.88;100.00;-17125.47;5023045;28;20193;-81
2023/07/14 05:21:12;;;;;;;14.60;10.57;;;;;;;-148.88;100.00;-17125.47;5006469;28;20473;-81
2023/07/14 05:23:37;;;;;;;16.35;10.30;;;;;;;-148.88;100.00;-17125.47;5024372;28;20026;-81
2023/07/14 05:26:03;;;;;;;13.35;9.68;;;;;;;-148.88;100.00;-17125.47;5005775;28;20022;-81
2023/07/14 05:28:29;;;;;;;17.08;10.27;;;;;;;-148.88;100.00;-17125.47;5006859;28;20026;-81
2023/07/14 05:30:54;;;;;;;11.95;9.10;;;;;;;-148.88;100.00;-17125.47;5024036;28;20022;-81
2023/07/14 05:33:20;;;;;;;21.00;10.00;;;;;;;-148.88;100.00;-17125.47;5003230;28;20028;-79
2023/07/14 05:35:46;;;;;;;17.30;10.25;;;;;;;-148.88;100.00;-17125.47;5018696;28;20018;-80
2023/07/14 05:38:12;;;;;;;13.88;9.15;;;;;;;-148.88;100.00;-17125.47;5002775;28;20066;-79
2023/07/14 05:40:38;;;;;;;16.50;9.63;;;;;;;-148.88;100.00;-17125.47;5021502;28;20116;-78
2023/07/14 05:43:03;;;;;;;13.73;9.35;;;;;;;-148.88;100.00;-17125.47;5004773;28;20053;-80
2023/07/14 05:45:29;;;;;;;14.27;10.00;;;;;;;-148.88;100.00;-17125.47;5023989;28;20396;-81
2023/07/14 05:47:55;;;;;;;12.30;8.82;;;;;;;-148.88;100.00;-17125.47;5005291;28;20033;-81
2023/07/14 05:50:20;;;;;;;16.20;9.02;;;;;;;-148.88;100.00;-17125.47;5023683;28;20025;-80
2023/07/14 05:52:46;;;;;;;14.02;9.18;;;;;;;-148.88;100.00;-17125.47;5023934;28;20029;-80
2023/07/14 05:55:12;;;;;;;13.50;9.07;;;;;;;-148.88;100.00;-17125.47;5023958;28;20037;-81
2023/07/14 05:57:38;;;;;;;14.07;9.40;;;;;;;-148.88;100.00;-17125.47;5024012;28;20480;-81
2023/07/14 06:00:12;;;;;;;12.57;9.02;;;;;;;-148.88;100.00;-17125.47;5023757;28;20412;-81
2023/07/14 06:02:39;;;;;;;12.20;8.48;;;;;;;-148.88;100.00;-17125.47;5005955;28;20029;-80
2023/07/14 06:05:05;;;;;;;11.13;7.57;;;;;;;-148.88;100.00;-17125.47;5006076;28;20033;-81
2023/07/14 06:07:31;;;;;;;15.40;8.18;;;;;;;-148.88;100.00;-17125.47;5024381;28;20056;-81
2023/07/14 06:09:56;;;;;;;13.70;8.00;;;;;;;-148.88;100.00;-17125.47;5024101;28;20033;-81
2023/07/14 06:12:22;;;;;;;11.27;7.60;;;;;;;-148.88;100.00;-17125.47;5018168;28;20026;-79
2023/07/14 06:14:47;;;;;;;11.98;7.53;;;;;;;-148.88;100.00;-17125.47;5002402;28;20022;-80
2023/07/14 06:17:13;;;;;;;14.25;8.05;;;;;;;-148.88;100.00;-17125.47;5004376;28;20026;-81
2023/07/14 06:19:38;;;;;;;10.43;7.32;;;;;;;-148.88;100.00;-17125.47;5004741;28;20025;-81
2023/07/14 06:22:06;;;;;;;12.73;6.90;;;;;;;-148.88;100.00;-17125.47;5022096;28;20086;-81
2023/07/14 06:24:34;;;;;;;11.07;7.00;;;;;;;-148.88;100.00;-17125.47;5004120;28;20030;-81
2023/07/14 06:27:00;;;;;;;9.68;7.28;;;;;;;-148.88;100.00;-17125.47;5022589;28;20030;-80
2023/07/14 06:29:25;;;;;;;12.63;6.95;;;;;;;-148.88;100.00;-17125.47;5004709;28;20026;-82
2023/07/14 06:31:50;;;;;;;11.73;7.18;;;;;;;-148.88;100.00;-17125.47;5023017;28;20025;-80
2023/07/14 06:34:16;;;;;;;10.25;6.35;;;;;;;-148.88;100.00;-17125.47;5005466;28;20040;-81
2023/07/14 06:36:41;;;;;;;10.88;6.50;;;;;;;-148.88;100.00;-17125.47;5024071;28;20018;-82
2023/07/14 06:39:07;;;;;;;11.18;6.20;;;;;;;-148.88;100.00;-17125.47;5023923;28;20025;-82
2023/07/14 06:41:32;;;;;;;10.68;6.10;;;;;;;-148.88;100.00;-17125.47;5022599;28;20022;-81
2023/07/14 06:44:00;;;;;;;8.68;5.22;;;;;;;-148.88;100.00;-17125.47;5005253;28;20030;-81
2023/07/14 06:46:26;;;;;;;9.10;4.97;;;;;;;-148.88;100.00;-17125.47;5005096;28;20030;-82
2023/07/14 06:48:51;;;;;;;10.55;5.18;;;;;;;-148.88;100.00;-17125.47;5019957;28;20029;-79
2023/07/14 06:51:16;;;;;;;7.97;4.95;;;;;;;-148.88;100.00;-17125.47;5018158;28;20017;-81
2023/07/14 06:53:42;;;;;;;9.00;4.65;;;;;;;-148.88;100.00;-17125.47;5020179;28;20065;-80
2023/07/14 06:56:07;;;;;;;6.43;4.55;;;;;;;-148.88;100.00;-17125.47;5020473;28;20030;-81
2023/07/14 06:58:34;;;;;;;7.78;4.57;;;;;;;-148.88;100.00;-17125.47;5004655;28;20053;-81
2023/07/14 07:01:00;;;;;;;8.18;4.03;;;;;;;-148.88;100.00;-17125.47;5022918;28;20049;-82
2023/07/14 07:03:26;;;;;;;8.38;3.67;;;;;;;-148.88;100.00;-17125.47;5022247;28;20030;-82
2023/07/14 07:05:52;;;;;;;6.53;3.50;;;;;;;-148.88;100.00;-17125.47;5005196;28;20093;-82
2023/07/14 07:08:18;;;;;;;7.00;3.67;;;;;;;-148.88;100.00;-17125.47;5005012;28;20030;-81
2023/07/14 07:10:43;;;;;;;6.63;3.40;;;;;;;-148.88;99.77;-17125.47;5024681;28;20425;-81
2023/07/14 07:13:10;;;;;;;6.85;3.47;;;;;;;-148.88;99.54;-17125.47;5006259;28;20026;-81
2023/07/14 07:15:36;;;;;;;7.82;3.45;;;;;;;-148.88;99.84;-17125.47;5006107;28;20097;-81
2023/07/14 07:18:01;;;;;;;8.32;3.30;;;;;;;-148.88;97.51;-17125.47;5005254;28;20551;-81
2023/07/14 07:20:27;;;;;;;5.43;3.50;;;;;;;-148.88;99.11;-17125.47;5005185;28;20080;-81
2023/07/14 07:22:52;;;;;;;8.38;3.20;;;;;;;-148.88;96.55;-17125.47;5005008;28;20121;-81
2023/07/14 07:25:20;;;;;;;7.10;3.30;;;;;;;-148.88;98.33;-17125.47;5023461;28;20037;-81
2023/07/14 07:27:45;;;;;;;5.50;3.15;;;;;;;-148.88;98.36;-17125.47;5018538;28;20026;-82
2023/07/14 07:30:11;;;;;;;6.32;3.60;;;;;;;-148.88;96.25;-17125.47;5020206;28;20033;-82
2023/07/14 07:32:36;;;;;;;6.07;3.30;;;;;;;-148.88;94.94;-17125.47;5021406;28;20108;-82
2023/07/14 07:35:03;;;;;;;6.32;3.30;;;;;;;-148.88;92.29;-17125.47;5005427;28;20084;-82
2023/07/14 07:37:33;;;;;;;5.25;2.88;;;;;;;-148.88;91.46;-17125.47;5006120;28;20033;-82
2023/07/14 07:40:00;;;;;;;7.25;3.15;;;;;;;-148.88;95.50;-17125.47;5004892;28;20018;-80
2023/07/14 07:42:27;;;;;;;7.18;3.20;;;;;;;-148.88;96.06;-17125.47;5021227;28;20033;-81
2023/07/14 07:44:52;;;;;;;5.57;3.13;;;;;;;-148.88;92.90;-17125.47;5004609;28;20026;-80
2023/07/14 07:47:18;;;;;;;6.80;2.85;;;;;;;-148.88;91.00;-17125.47;5008320;28;20044;-82
2023/07/14 07:49:43;;;;;;;6.63;3.13;;;;;;;-148.88;92.33;-17125.47;5032613;28;20186;-80
2023/07/14 07:52:11;;;;;;;4.85;2.83;;;;;;;-148.88;90.30;-17125.47;5033304;28;20033;-81
2023/07/14 07:54:38;;;;;;;5.78;2.65;;;;;;;-148.88;87.30;-17125.47;5026742;28;20108;-82
2023/07/14 07:57:03;;;;;;;8.02;2.60;;;;;;;-148.88;85.47;-17125.47;5025137;28;20029;-82
2023/07/14 07:59:29;;;;;;;3.80;2.50;;;;;;;-148.88;83.45;-17125.47;5022665;28;20025;-82
2023/07/14 08:02:01;;;;;;;5.13;2.90;;;;;;;-148.88;85.22;-17125.47;5091160;27;20382;-74
2023/07/14 08:04:26;;;;;;;4.30;2.30;;;;;;;-148.88;82.68;-17125.47;5089126;28;20032;-74
2023/07/14 08:06:53;;;;;;;4.90;2.60;;;;;;;-148.88;82.68;-17125.47;5090414;28;20020;-74
2023/07/14 08:09:19;;;;;;;9.90;2.85;;;;;;;-148.88;82.22;-17125.47;5089390;28;20027;-74
2023/07/14 08:11:45;;;;;;;5.82;2.65;;;;;;;-148.88;80.94;-17125.47;5090762;28;20028;-74
2023/07/14 08:14:15;;;;;;;5.93;3.10;;;;;;;-148.88;81.04;-17125.47;5090123;28;20085;-74
2023/07/14 08:16:41;;;;;;;4.30;2.53;;;;;;;-148.88;82.47;-17125.47;5090471;28;20115;-74
2023/07/14 08:19:07;;;;;;;4.35;2.63;;;;;;;-148.88;81.09;-17125.47;5090195;28;20119;-74
2023/07/14 08:21:32;;;;;;;5.70;2.47;;;;;;;-148.88;80.75;-17125.47;5090207;28;20094;-74
2023/07/14 08:23:58;;;;;;;5.45;2.42;;;;;;;-148.88;78.55;-17125.47;5089991;28;20024;-74
2023/07/14 08:26:24;;;;;;;6.95;2.60;;;;;;;-148.88;81.36;-17125.47;5090117;28;20036;-74
2023/07/14 08:28:49;;;;;;;5.22;2.65;;;;;;;-148.88;78.79;-17125.47;5089384;28;20378;-74
2023/07/14 08:31:15;;;;;;;5.00;2.70;;;;;;;-148.88;80.59;-17125.47;5089944;28;20031;-74
2023/07/14 08:33:43;;;;;;;5.30;2.40;;;;;;;-148.88;76.80;-17125.47;5089787;28;20027;-74
2023/07/14 08:36:11;;;;;;;6.20;2.60;;;;;;;-148.88;80.39;-17125.47;5088551;28;20065;-74
2023/07/14 08:38:38;;;;;;;5.22;2.50;;;;;;;-148.88;75.49;-17125.47;5090034;28;20048;-74
2023/07/14 08:41:06;;;;;;;5.03;2.45;;;;;;;-148.88;77.58;-17125.47;5089693;28;20031;-75
2023/07/14 08:43:53;;;;;;;3.78;2.60;;;;;;;-148.88;78.47;-17125.47;5088280;28;20028;-75
2023/07/14 08:46:53;;;;;;;6.63;3.08;;;;;;;-148.88;78.80;-17125.47;5089596;28;20028;-75
2023/07/14 08:49:36;;;;;;;4.78;2.50;;;;;;;-148.88;75.65;-17125.47;5089885;28;20028;-75
2023/07/14 08:52:05;;;;;;;7.03;3.03;;;;;;;-148.88;76.10;-17125.47;5089744;28;20020;-75
2023/07/14 08:54:46;;;;;;;5.72;2.67;;;;;;;-148.88;77.68;-17125.47;5089367;28;20023;-75
2023/07/14 08:57:23;;;;;;;8.93;2.92;;;;;;;-148.88;73.80;-17125.47;5089784;28;20093;-76
2023/07/14 08:59:55;;;;;;;7.35;2.92;;;;;;;-148.88;72.29;-17125.47;5089492;28;20020;-75
2023/07/14 09:02:35;;;;;;;5.13;2.80;;;;;;;-148.88;73.03;-17125.47;5089472;28;20039;-75
2023/07/14 09:05:14;;;;;;;5.10;2.70;;;;;;;-148.88;74.70;-17125.47;5092752;28;20024;-74
2023/07/14 09:07:39;;;;;;;7.65;2.70;;;;;;;-148.88;74.60;-17125.47;5090071;28;20047;-75
2023/07/14 09:10:05;;;;;;;5.90;3.00;;;;;;;-148.88;75.49;-17125.47;5089128;28;20023;-75
2023/07/14 09:12:46;;;;;;;6.93;3.17;;;;;;;-148.88;73.98;-17125.47;5080501;28;20434;-75
2023/07/14 09:15:22;;;;;;;8.43;2.92;;;;;;;-148.88;73.75;-17125.47;5075666;28;20024;-75
2023/07/14 09:18:04;;;;;;;6.13;2.40;;;;;;;-148.88;72.97;-17125.47;5075749;28;20028;-75
2023/07/14 09:20:50;;;;;;;8.25;2.80;;;;;;;-148.88;70.52;-17125.47;5075364;28;20025;-75
2023/07/14 09:23:38;;;;;;;3.90;2.90;;;;;;;-148.88;69.86;-17125.47;5067991;28;20048;-76
2023/07/14 09:26:04;;;;;;;6.30;3.05;;;;;;;-148.88;71.79;-17125.47;5074259;28;20577;-75
2023/07/14 09:28:38;;;;;;;5.03;2.40;;;;;;;-148.88;71.25;-17125.47;5075533;28;20021;-74
2023/07/14 09:31:20;;;;;;;6.18;2.45;;;;;;;-148.88;69.18;-17125.47;5075302;28;20078;-74
2023/07/14 09:33:50;;;;;;;5.60;2.65;;;;;;;-148.88;67.86;-17125.47;5075374;28;20078;-74
2023/07/14 09:36:18;;;;;;;4.72;2.45;;;;;;;-148.88;66.28;-17125.47;5075154;28;20042;-76
2023/07/14 09:38:59;;;;;;;8.02;2.30;;;;;;;-148.88;66.04;-17125.47;5075437;28;20032;-75
2023/07/14 09:41:28;;;;;;;6.28;2.47;;;;;;;-148.88;64.05;-17125.47;5075601;28;20028;-75
2023/07/14 09:43:58;;;;;;;4.63;2.40;;;;;;;-148.88;65.18;-17125.47;5074068;28;20032;-74
2023/07/14 09:46:25;;;;;;;5.65;2.72;;;;;;;-148.88;68.49;-17125.47;5075223;28;20020;-75
2023/07/14 09:49:05;;;;;;;7.10;2.70;;;;;;;-148.88;63.54;-17125.47;5075020;28;20487;-75
2023/07/14 09:51:30;;;;;;;6.38;2.58;;;;;;;-148.88;64.95;-17125.47;5074977;28;20016;-74
2023/07/14 09:53:58;;;;;;;5.22;2.35;;;;;;;-148.88;65.76;-17125.47;5075088;28;20029;-74
2023/07/14 09:56:59;;;;;;;7.38;2.95;;;;;;;-148.88;64.25;-17125.47;5075671;28;20025;-82
2023/07/14 09:59:24;;;;;;;6.63;2.60;;;;;;;-148.88;61.84;-17125.47;5073486;28;20076;-74
2023/07/14 10:01:56;;;;;;;4.35;2.30;;;;;;;-148.88;62.28;-17125.47;5074499;28;20077;-73
2023/07/14 10:04:27;;;;;;;4.90;2.40;;;;;;;-148.88;60.59;-17125.47;5074583;28;20490;-75
2023/07/14 10:06:53;;;;;;;5.75;2.40;;;;;;;-148.88;61.40;-17125.47;5074833;28;20024;-75
2023/07/14 10:09:22;;;;;;;8.68;3.55;;;;;;;-148.88;63.05;-17125.47;5074569;28;20020;-75
2023/07/14 10:11:50;;;;;;;6.75;2.95;;;;;;;-148.88;60.73;-17125.47;5074508;28;20017;-75
2023/07/14 10:14:19;;;;;;;6.80;2.60;;;;;;;-148.88;63.65;-17125.47;5074421;28;20024;-75
2023/07/14 10:16:46;;;;;;;5.07;2.05;;;;;;;-148.88;59.42;-17125.47;5074672;28;20033;-75
2023/07/14 10:19:18;;;;;;;5.72;2.63;;;;;;;-148.88;58.19;-17125.47;5074571;28;20032;-76
2023/07/14 10:21:56;;;;;;;5.90;2.50;;;;;;;-148.88;58.52;-17125.47;5074397;28;20394;-74
2023/07/14 10:24:23;;;;;;;5.57;2.58;;;;;;;-148.88;56.70;-17125.47;5073318;28;20033;-74
2023/07/14 10:26:51;;;;;;;7.07;2.40;;;;;;;-148.88;58.45;-17125.47;5074233;28;20031;-74
2023/07/14 10:29:20;;;;;;;5.18;2.30;;;;;;;-148.88;56.54;-17125.47;5074151;28;20585;-74
2023/07/14 10:32:01;;;;;;;4.25;2.40;;;;;;;-148.88;55.64;-17125.47;5074124;28;20044;-74
2023/07/14 10:34:45;;;;;;;6.18;2.60;;;;;;;-148.88;55.73;-17125.47;5074580;28;20033;-75
2023/07/14 10:37:24;;;;;;;4.95;2.45;;;;;;;-148.88;55.44;-17125.47;5073991;28;20029;-74
2023/07/14 10:40:11;;;;;;;5.40;2.60;;;;;;;-148.88;54.59;-17125.47;5074157;28;20125;-74
2023/07/14 10:42:41;;;;;;;5.75;2.30;;;;;;;-148.88;56.04;-17125.47;5074050;28;20028;-74
2023/07/14 10:45:16;;;;;;;4.53;2.17;;;;;;;-148.88;55.39;-17125.47;5073963;28;20442;-75
2023/07/14 10:48:00;;;;;;;7.20;2.88;;;;;;;-148.88;55.00;-17125.47;5074089;28;20035;-74
2023/07/14 10:50:51;;;;;;;6.28;2.20;;;;;;;-148.88;55.28;-17125.47;5073959;28;20020;-74
2023/07/14 10:53:24;;;;;;;7.80;2.25;;;;;;;-148.88;53.99;-17125.47;5073653;28;20150;-73
2023/07/14 10:55:57;;;;;;;4.85;2.33;;;;;;;-148.88;53.69;-17125.47;5074135;28;20058;-74
2023/07/14 10:58:28;;;;;;;7.75;2.72;;;;;;;-148.88;57.79;-17125.47;5073673;28;20029;-74
2023/07/14 11:00:58;;;;;;;6.15;2.30;;;;;;;-148.88;50.29;-17125.47;5072001;28;20032;-75
2023/07/14 11:03:47;;;;;;;4.65;2.30;;;;;;;-148.88;54.14;-17125.47;5072467;28;20410;-75
2023/07/14 11:06:23;;;;;;;4.63;2.35;;;;;;;-148.88;53.22;-17125.47;5073475;28;20411;-74
2023/07/14 11:08:52;;;;;;;7.43;2.88;;;;;;;-148.88;52.77;-17125.47;5073587;28;20032;-75